sensor_id;sensor_type;location;lat;lon;timestamp;P1;P2;P0
12542;PMS3003;6337;49.556;25.594;2023-07-09T00:02:30;6.03;4.50;
12542;PMS3003;6337;49.556;25.594;2023-07-09T00:04:57;5.87;4.93;
12542;PMS3003;6337;49.556;25.594;2023-07-09T00:07:26;7.90;5.97;
12542;PMS3003;6337;49.556;25.594;2023-07-09T00:09:55;10.13;6.17;
12542;PMS3003;6337;49.556;25.594;2023-07-09T00:12:24;8.20;5.07;
12542;PMS3003;6337;49.556;25.594;2023-07-09T00:14:53;7.27;5.57;
12542;PMS3003;6337;49.556;25.594;2023-07-09T00:17:25;6.13;5.50;
12542;PMS3003;6337;49.556;25.594;2023-07-09T00:19:57;5.50;4.97;
12542;PMS3003;6337;49.556;25.594;2023-07-09T00:22:25;5.63;4.93;
12542;PMS3003;6337;49.556;25.594;2023-07-09T00:24:55;7.10;5.50;
12542;PMS3003;6337;49.556;25.594;2023-07-09T00:27:23;8.43;6.40;
12542;PMS3003;6337;49.556;25.594;2023-07-09T00:29:55;4.90;4.37;
12542;PMS3003;6337;49.556;25.594;2023-07-09T00:32:24;13.83;6.07;
12542;PMS3003;6337;49.556;25.594;2023-07-09T00:34:53;7.30;5.27;
12542;PMS3003;6337;49.556;25.594;2023-07-09T00:37:21;9.53;5.83;
12542;PMS3003;6337;49.556;25.594;2023-07-09T00:39:52;8.23;5.37;
12542;PMS3003;6337;49.556;25.594;2023-07-09T00:42:21;7.40;5.57;
12542;PMS3003;6337;49.556;25.594;2023-07-09T00:44:50;7.80;6.80;
12542;PMS3003;6337;49.556;25.594;2023-07-09T00:47:23;12.33;6.80;
12542;PMS3003;6337;49.556;25.594;2023-07-09T00:49:59;11.27;7.27;
12542;PMS3003;6337;49.556;25.594;2023-07-09T00:52:31;7.30;6.50;
12542;PMS3003;6337;49.556;25.594;2023-07-09T00:55:09;11.43;7.47;
12542;PMS3003;6337;49.556;25.594;2023-07-09T00:57:41;10.83;7.93;
12542;PMS3003;6337;49.556;25.594;2023-07-09T01:00:10;8.37;7.30;
12542;PMS3003;6337;49.556;25.594;2023-07-09T01:06:04;6.07;5.47;
12542;PMS3003;6337;49.556;25.594;2023-07-09T01:08:33;6.60;5.90;
12542;PMS3003;6337;49.556;25.594;2023-07-09T01:11:03;12.07;7.57;
12542;PMS3003;6337;49.556;25.594;2023-07-09T01:13:33;6.90;6.30;
12542;PMS3003;6337;49.556;25.594;2023-07-09T01:16:04;11.17;6.63;
12542;PMS3003;6337;49.556;25.594;2023-07-09T01:18:32;10.47;7.93;
12542;PMS3003;6337;49.556;25.594;2023-07-09T01:21:08;10.63;8.20;
12542;PMS3003;6337;49.556;25.594;2023-07-09T01:23:40;13.33;9.27;
12542;PMS3003;6337;49.556;25.594;2023-07-09T01:26:10;8.13;6.67;
12542;PMS3003;6337;49.556;25.594;2023-07-09T01:28:38;12.50;7.20;
12542;PMS3003;6337;49.556;25.594;2023-07-09T01:31:10;9.57;7.20;
12542;PMS3003;6337;49.556;25.594;2023-07-09T01:33:38;9.20;7.17;
12542;PMS3003;6337;49.556;25.594;2023-07-09T01:36:09;9.73;6.13;
12542;PMS3003;6337;49.556;25.594;2023-07-09T01:38:38;8.27;6.60;
12542;PMS3003;6337;49.556;25.594;2023-07-09T01:41:06;6.73;5.60;
12542;PMS3003;6337;49.556;25.594;2023-07-09T01:43:38;10.80;6.10;
12542;PMS3003;6337;49.556;25.594;2023-07-09T01:46:08;5.60;5.00;
12542;PMS3003;6337;49.556;25.594;2023-07-09T01:48:35;6.50;5.90;
12542;PMS3003;6337;49.556;25.594;2023-07-09T01:51:06;7.60;5.77;
12542;PMS3003;6337;49.556;25.594;2023-07-09T01:53:36;6.17;5.57;
12542;PMS3003;6337;49.556;25.594;2023-07-09T01:56:04;10.60;5.67;
12542;PMS3003;6337;49.556;25.594;2023-07-09T01:58:33;10.03;5.83;
12542;PMS3003;6337;49.556;25.594;2023-07-09T02:01:01;6.47;5.87;
12542;PMS3003;6337;49.556;25.594;2023-07-09T02:03:29;6.27;5.30;
12542;PMS3003;6337;49.556;25.594;2023-07-09T02:05:58;10.70;5.50;
12542;PMS3003;6337;49.556;25.594;2023-07-09T02:08:27;6.90;5.63;
12542;PMS3003;6337;49.556;25.594;2023-07-09T02:10:56;6.30;5.33;
12542;PMS3003;6337;49.556;25.594;2023-07-09T02:13:24;10.53;5.47;
12542;PMS3003;6337;49.556;25.594;2023-07-09T02:15:52;7.40;5.77;
12542;PMS3003;6337;49.556;25.594;2023-07-09T02:18:21;9.50;6.03;
12542;PMS3003;6337;49.556;25.594;2023-07-09T02:20:50;6.27;5.67;
12542;PMS3003;6337;49.556;25.594;2023-07-09T02:23:18;11.10;4.20;
12542;PMS3003;6337;49.556;25.594;2023-07-09T02:25:46;9.40;5.80;
12542;PMS3003;6337;49.556;25.594;2023-07-09T02:28:21;13.30;5.63;
12542;PMS3003;6337;49.556;25.594;2023-07-09T02:30:48;11.00;4.87;
12542;PMS3003;6337;49.556;25.594;2023-07-09T02:33:18;6.67;5.10;
12542;PMS3003;6337;49.556;25.594;2023-07-09T02:35:48;7.77;5.90;
12542;PMS3003;6337;49.556;25.594;2023-07-09T02:38:16;6.33;5.20;
12542;PMS3003;6337;49.556;25.594;2023-07-09T02:40:44;10.00;6.30;
12542;PMS3003;6337;49.556;25.594;2023-07-09T02:43:11;11.40;6.40;
12542;PMS3003;6337;49.556;25.594;2023-07-09T02:45:40;6.70;5.43;
12542;PMS3003;6337;49.556;25.594;2023-07-09T02:48:08;6.47;5.70;
12542;PMS3003;6337;49.556;25.594;2023-07-09T02:50:36;10.40;6.23;
12542;PMS3003;6337;49.556;25.594;2023-07-09T02:53:05;27.37;6.27;
12542;PMS3003;6337;49.556;25.594;2023-07-09T02:55:33;10.60;5.60;
12542;PMS3003;6337;49.556;25.594;2023-07-09T02:58:01;9.20;5.77;
12542;PMS3003;6337;49.556;25.594;2023-07-09T03:00:29;8.80;5.00;
12542;PMS3003;6337;49.556;25.594;2023-07-09T03:03:01;6.67;5.57;
12542;PMS3003;6337;49.556;25.594;2023-07-09T03:05:30;12.63;5.80;
12542;PMS3003;6337;49.556;25.594;2023-07-09T03:07:58;7.27;5.47;
12542;PMS3003;6337;49.556;25.594;2023-07-09T03:10:28;6.10;5.50;
12542;PMS3003;6337;49.556;25.594;2023-07-09T03:12:55;11.43;5.17;
12542;PMS3003;6337;49.556;25.594;2023-07-09T03:15:23;11.20;6.60;
12542;PMS3003;6337;49.556;25.594;2023-07-09T03:17:52;7.73;5.80;
12542;PMS3003;6337;49.556;25.594;2023-07-09T03:20:21;7.50;6.47;
12542;PMS3003;6337;49.556;25.594;2023-07-09T03:22:48;7.93;6.30;
12542;PMS3003;6337;49.556;25.594;2023-07-09T03:25:16;10.30;5.03;
12542;PMS3003;6337;49.556;25.594;2023-07-09T03:27:47;9.60;6.60;
12542;PMS3003;6337;49.556;25.594;2023-07-09T03:30:15;8.97;5.90;
12542;PMS3003;6337;49.556;25.594;2023-07-09T03:32:43;15.37;6.83;
12542;PMS3003;6337;49.556;25.594;2023-07-09T03:35:14;8.80;6.43;
12542;PMS3003;6337;49.556;25.594;2023-07-09T03:37:44;6.73;5.63;
12542;PMS3003;6337;49.556;25.594;2023-07-09T03:40:13;11.70;6.27;
12542;PMS3003;6337;49.556;25.594;2023-07-09T03:42:47;21.47;5.67;
12542;PMS3003;6337;49.556;25.594;2023-07-09T03:45:15;11.97;5.97;
12542;PMS3003;6337;49.556;25.594;2023-07-09T03:47:43;7.13;6.37;
12542;PMS3003;6337;49.556;25.594;2023-07-09T03:50:11;10.17;6.53;
12542;PMS3003;6337;49.556;25.594;2023-07-09T03:52:40;8.87;5.77;
12542;PMS3003;6337;49.556;25.594;2023-07-09T03:55:11;7.00;6.30;
12542;PMS3003;6337;49.556;25.594;2023-07-09T03:57:39;11.27;7.07;
12542;PMS3003;6337;49.556;25.594;2023-07-09T04:00:08;12.97;6.00;
12542;PMS3003;6337;49.556;25.594;2023-07-09T04:02:41;10.87;7.37;
12542;PMS3003;6337;49.556;25.594;2023-07-09T04:05:10;6.83;6.00;
12542;PMS3003;6337;49.556;25.594;2023-07-09T05:08:33;8.40;5.90;
12542;PMS3003;6337;49.556;25.594;2023-07-09T05:11:01;14.00;5.67;
12542;PMS3003;6337;49.556;25.594;2023-07-09T05:13:30;13.37;5.83;
12542;PMS3003;6337;49.556;25.594;2023-07-09T05:15:58;7.33;4.50;
12542;PMS3003;6337;49.556;25.594;2023-07-09T05:18:50;5.63;5.13;
12542;PMS3003;6337;49.556;25.594;2023-07-09T05:21:43;9.43;4.37;
12542;PMS3003;6337;49.556;25.594;2023-07-09T05:24:36;5.90;4.70;
12542;PMS3003;6337;49.556;25.594;2023-07-09T05:27:27;7.67;4.27;
12542;PMS3003;6337;49.556;25.594;2023-07-09T05:30:19;10.37;4.83;
12542;PMS3003;6337;49.556;25.594;2023-07-09T05:33:12;15.50;7.00;
12542;PMS3003;6337;49.556;25.594;2023-07-09T05:36:04;6.70;5.33;
12542;PMS3003;6337;49.556;25.594;2023-07-09T05:38:56;8.10;4.67;
12542;PMS3003;6337;49.556;25.594;2023-07-09T05:41:52;15.53;5.47;
12542;PMS3003;6337;49.556;25.594;2023-07-09T05:44:44;5.20;4.43;
12542;PMS3003;6337;49.556;25.594;2023-07-09T05:47:35;9.33;4.57;
12542;PMS3003;6337;49.556;25.594;2023-07-09T05:50:26;5.63;4.00;
12542;PMS3003;6337;49.556;25.594;2023-07-09T05:53:19;11.73;6.00;
12542;PMS3003;6337;49.556;25.594;2023-07-09T05:56:10;18.27;5.33;
12542;PMS3003;6337;49.556;25.594;2023-07-09T05:59:06;10.90;6.07;
12542;PMS3003;6337;49.556;25.594;2023-07-09T06:02:02;9.60;6.17;
12542;PMS3003;6337;49.556;25.594;2023-07-09T06:04:58;8.07;3.97;
12542;PMS3003;6337;49.556;25.594;2023-07-09T06:07:49;4.63;3.30;
12542;PMS3003;6337;49.556;25.594;2023-07-09T06:10:50;9.03;4.07;
12542;PMS3003;6337;49.556;25.594;2023-07-09T06:13:42;4.73;4.13;
12542;PMS3003;6337;49.556;25.594;2023-07-09T06:16:39;7.40;4.30;
12542;PMS3003;6337;49.556;25.594;2023-07-09T06:19:30;3.83;3.00;
12542;PMS3003;6337;49.556;25.594;2023-07-09T06:22:33;8.00;3.80;
12542;PMS3003;6337;49.556;25.594;2023-07-09T06:25:29;10.27;3.30;
12542;PMS3003;6337;49.556;25.594;2023-07-09T06:28:22;4.90;3.00;
12542;PMS3003;6337;49.556;25.594;2023-07-09T06:31:16;3.37;3.07;
12542;PMS3003;6337;49.556;25.594;2023-07-09T06:34:09;3.77;3.00;
12542;PMS3003;6337;49.556;25.594;2023-07-09T06:37:01;4.20;3.17;
12542;PMS3003;6337;49.556;25.594;2023-07-09T06:39:54;5.57;2.60;
12542;PMS3003;6337;49.556;25.594;2023-07-09T06:42:47;4.80;2.67;
12542;PMS3003;6337;49.556;25.594;2023-07-09T06:45:47;4.40;2.00;
12542;PMS3003;6337;49.556;25.594;2023-07-09T06:48:39;6.00;3.57;
12542;PMS3003;6337;49.556;25.594;2023-07-09T06:51:34;3.77;3.10;
12542;PMS3003;6337;49.556;25.594;2023-07-09T06:54:25;14.67;3.30;
12542;PMS3003;6337;49.556;25.594;2023-07-09T06:57:17;9.10;2.97;
12542;PMS3003;6337;49.556;25.594;2023-07-09T07:00:08;9.10;2.70;
12542;PMS3003;6337;49.556;25.594;2023-07-09T07:03:02;4.73;3.07;
12542;PMS3003;6337;49.556;25.594;2023-07-09T07:05:53;3.23;2.80;
12542;PMS3003;6337;49.556;25.594;2023-07-09T07:11:55;3.50;3.17;
12542;PMS3003;6337;49.556;25.594;2023-07-09T07:14:46;4.50;3.00;
12542;PMS3003;6337;49.556;25.594;2023-07-09T07:17:37;2.80;2.60;
12542;PMS3003;6337;49.556;25.594;2023-07-09T07:43:06;4.00;2.53;
12542;PMS3003;6337;49.556;25.594;2023-07-09T07:45:34;9.43;2.60;
12542;PMS3003;6337;49.556;25.594;2023-07-09T07:48:03;7.97;2.73;
12542;PMS3003;6337;49.556;25.594;2023-07-09T07:50:30;7.60;3.43;
12542;PMS3003;6337;49.556;25.594;2023-07-09T07:52:59;3.30;2.97;
12542;PMS3003;6337;49.556;25.594;2023-07-09T07:55:33;3.43;2.47;
12542;PMS3003;6337;49.556;25.594;2023-07-09T07:58:01;7.50;3.20;
12542;PMS3003;6337;49.556;25.594;2023-07-09T08:00:31;3.73;3.40;
12542;PMS3003;6337;49.556;25.594;2023-07-09T08:02:58;10.17;2.50;
12542;PMS3003;6337;49.556;25.594;2023-07-09T08:05:26;4.63;3.20;
12542;PMS3003;6337;49.556;25.594;2023-07-09T08:07:56;3.20;2.87;
12542;PMS3003;6337;49.556;25.594;2023-07-09T08:10:24;4.17;2.70;
12542;PMS3003;6337;49.556;25.594;2023-07-09T08:13:18;6.60;2.43;
12542;PMS3003;6337;49.556;25.594;2023-07-09T08:15:49;8.03;3.30;
12542;PMS3003;6337;49.556;25.594;2023-07-09T08:18:17;2.73;2.50;
12542;PMS3003;6337;49.556;25.594;2023-07-09T08:20:45;2.87;2.70;
12542;PMS3003;6337;49.556;25.594;2023-07-09T08:23:15;3.73;2.77;
12542;PMS3003;6337;49.556;25.594;2023-07-09T08:25:51;2.67;2.47;
12542;PMS3003;6337;49.556;25.594;2023-07-09T08:28:19;7.13;2.67;
12542;PMS3003;6337;49.556;25.594;2023-07-09T08:30:47;4.53;3.27;
12542;PMS3003;6337;49.556;25.594;2023-07-09T08:33:16;10.73;3.67;
12542;PMS3003;6337;49.556;25.594;2023-07-09T08:35:48;3.13;2.47;
12542;PMS3003;6337;49.556;25.594;2023-07-09T08:38:15;7.83;3.30;
12542;PMS3003;6337;49.556;25.594;2023-07-09T08:40:49;5.17;3.10;
12542;PMS3003;6337;49.556;25.594;2023-07-09T08:43:26;4.93;2.03;
12542;PMS3003;6337;49.556;25.594;2023-07-09T08:46:01;6.83;2.40;
12542;PMS3003;6337;49.556;25.594;2023-07-09T08:48:34;5.33;2.47;
12542;PMS3003;6337;49.556;25.594;2023-07-09T08:51:03;3.10;2.90;
12542;PMS3003;6337;49.556;25.594;2023-07-09T08:53:33;8.13;3.20;
12542;PMS3003;6337;49.556;25.594;2023-07-09T08:56:02;6.13;3.03;
12542;PMS3003;6337;49.556;25.594;2023-07-09T08:58:31;2.70;2.50;
12542;PMS3003;6337;49.556;25.594;2023-07-09T09:01:00;4.13;2.17;
12542;PMS3003;6337;49.556;25.594;2023-07-09T09:03:31;2.50;2.30;
12542;PMS3003;6337;49.556;25.594;2023-07-09T09:06:14;3.50;2.00;
12542;PMS3003;6337;49.556;25.594;2023-07-09T09:08:44;3.30;2.90;
12542;PMS3003;6337;49.556;25.594;2023-07-09T09:11:16;4.80;2.50;
12542;PMS3003;6337;49.556;25.594;2023-07-09T09:13:49;3.03;2.33;
12542;PMS3003;6337;49.556;25.594;2023-07-09T09:16:21;5.53;3.27;
12542;PMS3003;6337;49.556;25.594;2023-07-09T09:18:50;2.20;2.00;
12542;PMS3003;6337;49.556;25.594;2023-07-09T09:21:21;4.60;2.27;
12542;PMS3003;6337;49.556;25.594;2023-07-09T09:23:56;5.77;2.03;
12542;PMS3003;6337;49.556;25.594;2023-07-09T09:26:26;2.23;2.13;
12542;PMS3003;6337;49.556;25.594;2023-07-09T09:28:56;3.10;2.80;
12542;PMS3003;6337;49.556;25.594;2023-07-09T09:31:25;10.00;3.30;
12542;PMS3003;6337;49.556;25.594;2023-07-09T09:33:54;6.60;3.03;
12542;PMS3003;6337;49.556;25.594;2023-07-09T09:36:24;3.20;2.90;
12542;PMS3003;6337;49.556;25.594;2023-07-09T09:38:52;20.23;2.63;
12542;PMS3003;6337;49.556;25.594;2023-07-09T09:41:21;3.70;2.40;
12542;PMS3003;6337;49.556;25.594;2023-07-09T09:43:51;3.53;2.53;
12542;PMS3003;6337;49.556;25.594;2023-07-09T09:46:23;6.50;2.77;
12542;PMS3003;6337;49.556;25.594;2023-07-09T09:48:54;9.53;3.30;
12542;PMS3003;6337;49.556;25.594;2023-07-09T09:51:27;6.83;2.43;
12542;PMS3003;6337;49.556;25.594;2023-07-09T09:53:55;4.73;2.90;
12542;PMS3003;6337;49.556;25.594;2023-07-09T09:56:27;5.80;4.40;
12542;PMS3003;6337;49.556;25.594;2023-07-09T09:58:56;4.03;2.57;
12542;PMS3003;6337;49.556;25.594;2023-07-09T10:01:28;2.93;2.63;
12542;PMS3003;6337;49.556;25.594;2023-07-09T10:03:57;1.87;1.77;
12542;PMS3003;6337;49.556;25.594;2023-07-09T10:06:32;2.73;2.40;
12542;PMS3003;6337;49.556;25.594;2023-07-09T10:09:05;4.97;3.07;
12542;PMS3003;6337;49.556;25.594;2023-07-09T10:11:51;4.13;3.10;
12542;PMS3003;6337;49.556;25.594;2023-07-09T10:17:14;4.73;2.60;
12542;PMS3003;6337;49.556;25.594;2023-07-09T10:19:49;2.90;2.60;
12542;PMS3003;6337;49.556;25.594;2023-07-09T10:22:24;3.43;3.10;
12542;PMS3003;6337;49.556;25.594;2023-07-09T10:24:56;4.80;2.73;
12542;PMS3003;6337;49.556;25.594;2023-07-09T10:27:29;6.20;3.17;
12542;PMS3003;6337;49.556;25.594;2023-07-09T10:32:51;8.43;3.10;
12542;PMS3003;6337;49.556;25.594;2023-07-09T10:35:23;5.03;3.00;
12542;PMS3003;6337;49.556;25.594;2023-07-09T10:37:59;3.90;3.10;
12542;PMS3003;6337;49.556;25.594;2023-07-09T10:40:31;3.40;2.70;
12542;PMS3003;6337;49.556;25.594;2023-07-09T10:43:04;8.50;3.17;
12542;PMS3003;6337;49.556;25.594;2023-07-09T10:45:33;3.73;2.23;
12542;PMS3003;6337;49.556;25.594;2023-07-09T10:48:07;9.10;3.33;
12542;PMS3003;6337;49.556;25.594;2023-07-09T10:50:38;7.27;3.87;
12542;PMS3003;6337;49.556;25.594;2023-07-09T10:53:11;5.47;3.60;
12542;PMS3003;6337;49.556;25.594;2023-07-09T10:55:43;8.30;2.23;
12542;PMS3003;6337;49.556;25.594;2023-07-09T10:58:19;2.73;2.57;
12542;PMS3003;6337;49.556;25.594;2023-07-09T11:00:50;2.53;2.40;
12542;PMS3003;6337;49.556;25.594;2023-07-09T11:03:19;5.13;2.80;
12542;PMS3003;6337;49.556;25.594;2023-07-09T11:05:48;2.83;2.53;
12542;PMS3003;6337;49.556;25.594;2023-07-09T11:08:26;3.63;2.97;
12542;PMS3003;6337;49.556;25.594;2023-07-09T11:10:56;3.03;2.73;
12542;PMS3003;6337;49.556;25.594;2023-07-09T11:13:30;2.73;2.53;
12542;PMS3003;6337;49.556;25.594;2023-07-09T11:15:59;2.70;2.50;
12542;PMS3003;6337;49.556;25.594;2023-07-09T11:18:30;5.77;2.63;
12542;PMS3003;6337;49.556;25.594;2023-07-09T11:20:59;2.27;2.07;
12542;PMS3003;6337;49.556;25.594;2023-07-09T11:23:39;2.87;2.60;
12542;PMS3003;6337;49.556;25.594;2023-07-09T11:26:14;4.17;3.10;
12542;PMS3003;6337;49.556;25.594;2023-07-09T11:28:46;7.20;3.20;
12542;PMS3003;6337;49.556;25.594;2023-07-09T11:31:20;12.53;3.07;
12542;PMS3003;6337;49.556;25.594;2023-07-09T11:33:56;8.30;2.30;
12542;PMS3003;6337;49.556;25.594;2023-07-09T11:36:26;2.77;2.50;
12542;PMS3003;6337;49.556;25.594;2023-07-09T11:38:57;5.90;3.40;
12542;PMS3003;6337;49.556;25.594;2023-07-09T11:41:27;11.30;3.47;
12542;PMS3003;6337;49.556;25.594;2023-07-09T11:44:03;3.27;2.97;
12542;PMS3003;6337;49.556;25.594;2023-07-09T11:46:32;4.10;3.70;
12542;PMS3003;6337;49.556;25.594;2023-07-09T11:49:03;2.70;2.50;
12542;PMS3003;6337;49.556;25.594;2023-07-09T11:51:40;4.13;3.83;
12542;PMS3003;6337;49.556;25.594;2023-07-09T11:54:11;3.83;3.07;
12542;PMS3003;6337;49.556;25.594;2023-07-09T11:56:40;3.37;3.07;
12542;PMS3003;6337;49.556;25.594;2023-07-09T11:59:08;5.50;2.80;
12542;PMS3003;6337;49.556;25.594;2023-07-09T12:01:38;2.90;2.63;
12542;PMS3003;6337;49.556;25.594;2023-07-09T12:04:11;6.03;3.30;
12542;PMS3003;6337;49.556;25.594;2023-07-09T12:06:40;3.27;3.03;
12542;PMS3003;6337;49.556;25.594;2023-07-09T12:09:14;3.23;3.00;
12542;PMS3003;6337;49.556;25.594;2023-07-09T12:11:43;3.27;3.03;
12542;PMS3003;6337;49.556;25.594;2023-07-09T12:14:17;3.70;3.30;
12542;PMS3003;6337;49.556;25.594;2023-07-09T12:16:46;4.10;3.70;
12542;PMS3003;6337;49.556;25.594;2023-07-09T14:14:21;4.30;3.90;
12542;PMS3003;6337;49.556;25.594;2023-07-09T14:16:50;8.53;3.27;
12542;PMS3003;6337;49.556;25.594;2023-07-09T14:19:18;4.33;3.13;
12542;PMS3003;6337;49.556;25.594;2023-07-09T14:21:46;4.10;3.13;
12542;PMS3003;6337;49.556;25.594;2023-07-09T14:24:17;3.40;3.10;
12542;PMS3003;6337;49.556;25.594;2023-07-09T14:26:56;3.50;2.80;
12542;PMS3003;6337;49.556;25.594;2023-07-09T14:29:28;5.60;2.93;
12542;PMS3003;6337;49.556;25.594;2023-07-09T14:31:57;8.63;2.93;
12542;PMS3003;6337;49.556;25.594;2023-07-09T14:34:28;7.70;3.57;
12542;PMS3003;6337;49.556;25.594;2023-07-09T14:36:57;3.13;2.83;
12542;PMS3003;6337;49.556;25.594;2023-07-09T14:39:26;5.03;3.00;
12542;PMS3003;6337;49.556;25.594;2023-07-09T14:41:54;2.93;2.23;
12542;PMS3003;6337;49.556;25.594;2023-07-09T14:44:25;7.13;2.77;
12542;PMS3003;6337;49.556;25.594;2023-07-09T14:46:56;4.47;3.23;
12542;PMS3003;6337;49.556;25.594;2023-07-09T14:49:25;4.77;2.90;
12542;PMS3003;6337;49.556;25.594;2023-07-09T14:51:53;3.70;2.53;
12542;PMS3003;6337;49.556;25.594;2023-07-09T14:54:22;7.17;3.30;
12542;PMS3003;6337;49.556;25.594;2023-07-09T14:56:50;6.47;4.97;
12542;PMS3003;6337;49.556;25.594;2023-07-09T14:59:27;7.23;3.37;
12542;PMS3003;6337;49.556;25.594;2023-07-09T15:04:43;4.43;3.00;
12542;PMS3003;6337;49.556;25.594;2023-07-09T15:07:11;4.07;3.27;
12542;PMS3003;6337;49.556;25.594;2023-07-09T15:09:40;8.23;2.80;
12542;PMS3003;6337;49.556;25.594;2023-07-09T15:12:12;4.53;3.50;
12542;PMS3003;6337;49.556;25.594;2023-07-09T15:14:42;9.93;2.87;
12542;PMS3003;6337;49.556;25.594;2023-07-09T15:17:10;5.30;3.30;
12542;PMS3003;6337;49.556;25.594;2023-07-09T15:19:38;3.47;3.00;
12542;PMS3003;6337;49.556;25.594;2023-07-09T15:22:14;3.93;2.93;
12542;PMS3003;6337;49.556;25.594;2023-07-09T15:25:15;8.60;2.90;
12542;PMS3003;6337;49.556;25.594;2023-07-09T15:27:47;5.23;2.40;
12542;PMS3003;6337;49.556;25.594;2023-07-09T15:30:18;2.90;2.70;
12542;PMS3003;6337;49.556;25.594;2023-07-09T15:32:47;5.10;3.30;
12542;PMS3003;6337;49.556;25.594;2023-07-09T15:35:21;5.03;3.47;
12542;PMS3003;6337;49.556;25.594;2023-07-09T15:37:53;3.30;3.00;
12542;PMS3003;6337;49.556;25.594;2023-07-09T15:40:24;3.77;2.90;
12542;PMS3003;6337;49.556;25.594;2023-07-09T15:42:58;3.80;2.97;
12542;PMS3003;6337;49.556;25.594;2023-07-09T15:45:28;4.83;3.37;
12542;PMS3003;6337;49.556;25.594;2023-07-09T15:47:55;6.80;3.20;
12542;PMS3003;6337;49.556;25.594;2023-07-09T15:50:23;3.37;3.17;
12542;PMS3003;6337;49.556;25.594;2023-07-09T15:52:54;4.17;2.27;
12542;PMS3003;6337;49.556;25.594;2023-07-09T15:55:23;6.77;3.00;
12542;PMS3003;6337;49.556;25.594;2023-07-09T15:57:51;3.50;3.17;
12542;PMS3003;6337;49.556;25.594;2023-07-09T16:00:20;3.10;2.80;
12542;PMS3003;6337;49.556;25.594;2023-07-09T16:02:48;11.70;3.30;
12542;PMS3003;6337;49.556;25.594;2023-07-09T16:05:20;8.40;2.93;
12542;PMS3003;6337;49.556;25.594;2023-07-09T16:07:50;6.80;2.60;
12542;PMS3003;6337;49.556;25.594;2023-07-09T16:10:21;3.47;3.03;
12542;PMS3003;6337;49.556;25.594;2023-07-09T16:12:50;2.70;2.20;
12542;PMS3003;6337;49.556;25.594;2023-07-09T16:15:19;3.00;2.80;
12542;PMS3003;6337;49.556;25.594;2023-07-09T16:17:48;4.30;2.60;
12542;PMS3003;6337;49.556;25.594;2023-07-09T16:20:18;5.80;3.10;
12542;PMS3003;6337;49.556;25.594;2023-07-09T16:22:49;4.70;2.80;
12542;PMS3003;6337;49.556;25.594;2023-07-09T16:25:18;5.60;3.47;
12542;PMS3003;6337;49.556;25.594;2023-07-09T16:27:50;9.03;3.17;
12542;PMS3003;6337;49.556;25.594;2023-07-09T16:30:23;13.53;3.13;
12542;PMS3003;6337;49.556;25.594;2023-07-09T16:32:51;2.80;2.60;
12542;PMS3003;6337;49.556;25.594;2023-07-09T16:35:20;7.23;3.00;
12542;PMS3003;6337;49.556;25.594;2023-07-09T16:37:56;6.13;3.77;
12542;PMS3003;6337;49.556;25.594;2023-07-09T16:40:24;3.40;2.67;
12542;PMS3003;6337;49.556;25.594;2023-07-09T16:42:58;8.53;3.20;
12542;PMS3003;6337;49.556;25.594;2023-07-09T16:45:40;5.00;3.43;
12542;PMS3003;6337;49.556;25.594;2023-07-09T16:48:23;5.00;3.13;
12542;PMS3003;6337;49.556;25.594;2023-07-09T16:50:53;5.97;2.87;
12542;PMS3003;6337;49.556;25.594;2023-07-09T16:53:26;5.23;2.87;
12542;PMS3003;6337;49.556;25.594;2023-07-09T16:55:55;17.27;2.47;
12542;PMS3003;6337;49.556;25.594;2023-07-09T17:01:18;4.13;2.90;
12542;PMS3003;6337;49.556;25.594;2023-07-09T17:03:47;7.27;3.07;
12542;PMS3003;6337;49.556;25.594;2023-07-09T17:06:16;5.80;2.67;
12542;PMS3003;6337;49.556;25.594;2023-07-09T17:11:41;6.50;3.47;
12542;PMS3003;6337;49.556;25.594;2023-07-09T17:14:10;3.13;2.83;
12542;PMS3003;6337;49.556;25.594;2023-07-09T17:16:51;5.07;3.60;
12542;PMS3003;6337;49.556;25.594;2023-07-09T17:19:19;7.13;3.07;
12542;PMS3003;6337;49.556;25.594;2023-07-09T17:21:47;3.80;3.50;
12542;PMS3003;6337;49.556;25.594;2023-07-09T17:24:20;3.90;3.60;
12542;PMS3003;6337;49.556;25.594;2023-07-09T17:26:56;7.27;2.77;
12542;PMS3003;6337;49.556;25.594;2023-07-09T17:35:24;5.10;4.23;
12542;PMS3003;6337;49.556;25.594;2023-07-09T17:37:53;6.93;2.77;
12542;PMS3003;6337;49.556;25.594;2023-07-09T17:40:24;9.23;2.77;
12542;PMS3003;6337;49.556;25.594;2023-07-09T17:42:55;4.03;3.63;
12542;PMS3003;6337;49.556;25.594;2023-07-09T17:45:25;6.83;2.60;
12542;PMS3003;6337;49.556;25.594;2023-07-09T17:47:54;3.77;3.00;
12542;PMS3003;6337;49.556;25.594;2023-07-09T17:50:22;6.80;3.27;
12542;PMS3003;6337;49.556;25.594;2023-07-09T17:53:04;6.03;3.03;
12542;PMS3003;6337;49.556;25.594;2023-07-09T17:55:43;3.53;3.13;
12542;PMS3003;6337;49.556;25.594;2023-07-09T17:58:12;3.63;3.17;
12542;PMS3003;6337;49.556;25.594;2023-07-09T18:00:41;12.07;4.23;
12542;PMS3003;6337;49.556;25.594;2023-07-09T18:03:09;6.20;3.20;
12542;PMS3003;6337;49.556;25.594;2023-07-09T18:05:44;4.87;2.87;
12542;PMS3003;6337;49.556;25.594;2023-07-09T18:08:14;5.33;3.90;
12542;PMS3003;6337;49.556;25.594;2023-07-09T18:10:43;4.20;2.40;
12542;PMS3003;6337;49.556;25.594;2023-07-09T18:13:12;8.93;3.00;
12542;PMS3003;6337;49.556;25.594;2023-07-09T18:15:44;8.07;3.47;
12542;PMS3003;6337;49.556;25.594;2023-07-09T18:18:13;13.37;3.50;
12542;PMS3003;6337;49.556;25.594;2023-07-09T20:55:39;17.00;7.97;
12542;PMS3003;6337;49.556;25.594;2023-07-09T20:58:14;11.07;8.23;
12542;PMS3003;6337;49.556;25.594;2023-07-09T21:00:52;10.70;9.67;
12542;PMS3003;6337;49.556;25.594;2023-07-09T21:03:24;14.40;9.30;
12542;PMS3003;6337;49.556;25.594;2023-07-09T21:05:58;17.80;9.50;
12542;PMS3003;6337;49.556;25.594;2023-07-09T21:08:27;10.50;9.53;
12542;PMS3003;6337;49.556;25.594;2023-07-09T21:11:00;13.03;9.53;
12542;PMS3003;6337;49.556;25.594;2023-07-09T21:13:28;14.27;8.57;
12542;PMS3003;6337;49.556;25.594;2023-07-09T21:15:57;9.83;7.40;
12542;PMS3003;6337;49.556;25.594;2023-07-09T21:18:28;15.40;6.10;
12542;PMS3003;6337;49.556;25.594;2023-07-09T21:21:22;11.60;6.40;
12542;PMS3003;6337;49.556;25.594;2023-07-09T21:24:30;8.23;5.77;
12542;PMS3003;6337;49.556;25.594;2023-07-09T21:27:25;6.43;5.30;
12542;PMS3003;6337;49.556;25.594;2023-07-09T21:30:17;6.30;5.33;
12542;PMS3003;6337;49.556;25.594;2023-07-09T21:33:11;10.03;4.30;
12542;PMS3003;6337;49.556;25.594;2023-07-09T21:36:06;8.70;6.50;
12542;PMS3003;6337;49.556;25.594;2023-07-09T21:38:59;7.87;5.43;
12542;PMS3003;6337;49.556;25.594;2023-07-09T21:41:54;9.57;6.43;
12542;PMS3003;6337;49.556;25.594;2023-07-09T21:44:47;6.77;5.90;
12542;PMS3003;6337;49.556;25.594;2023-07-09T21:47:39;9.57;5.20;
12542;PMS3003;6337;49.556;25.594;2023-07-09T21:50:31;4.93;3.70;
12542;PMS3003;6337;49.556;25.594;2023-07-09T21:53:23;6.30;4.63;
12542;PMS3003;6337;49.556;25.594;2023-07-09T21:56:14;8.93;4.10;
12542;PMS3003;6337;49.556;25.594;2023-07-09T21:59:05;4.63;4.23;
12542;PMS3003;6337;49.556;25.594;2023-07-09T22:02:00;5.60;4.63;
12542;PMS3003;6337;49.556;25.594;2023-07-09T22:04:53;7.27;5.63;
12542;PMS3003;6337;49.556;25.594;2023-07-09T22:07:45;14.20;4.80;
12542;PMS3003;6337;49.556;25.594;2023-07-09T22:10:38;5.83;5.20;
12542;PMS3003;6337;49.556;25.594;2023-07-09T22:13:34;4.67;4.07;
12542;PMS3003;6337;49.556;25.594;2023-07-09T22:16:25;5.93;5.33;
12542;PMS3003;6337;49.556;25.594;2023-07-09T22:19:20;5.33;4.83;
12542;PMS3003;6337;49.556;25.594;2023-07-09T22:22:12;4.37;3.97;